sensor_id;sensor_type;location;lat;lon;timestamp;pressure;altitude;pressure_sealevel;temperature;humidity
48555;BME280;34336;48.270;16.716;2022-12-29T00:01:38;77800.66;;;18.16;100.00
48555;BME280;34336;48.270;16.716;2022-12-29T00:04:05;77794.88;;;18.16;100.00
48555;BME280;34336;48.270;16.716;2022-12-29T00:06:39;77806.44;;;18.16;100.00
48555;BME280;34336;48.270;16.716;2022-12-29T00:09:06;77808.34;;;18.16;100.00
48555;BME280;34336;48.270;16.716;2022-12-29T00:11:32;77823.78;;;18.16;100.00
48555;BME280;34336;48.270;16.716;2022-12-29T00:13:59;77839.19;;;18.16;100.00
48555;BME280;34336;48.270;16.716;2022-12-29T00:16:51;77852.69;;;18.16;100.00
48555;BME280;34336;48.270;16.716;2022-12-29T00:19:18;77831.50;;;18.16;100.00
48555;BME280;34336;48.270;16.716;2022-12-29T00:22:03;77846.91;;;18.16;100.00
48555;BME280;34336;48.270;16.716;2022-12-29T00:24:48;77846.91;;;18.16;100.00
48555;BME280;34336;48.270;16.716;2022-12-29T00:27:33;77846.91;;;18.16;100.00
48555;BME280;34336;48.270;16.716;2022-12-29T00:30:22;77862.34;;;18.16;100.00
48555;BME280;34336;48.270;16.716;2022-12-29T00:33:08;77870.03;;;18.16;100.00
48555;BME280;34336;48.270;16.716;2022-12-29T00:35:56;77868.13;;;18.16;100.00
48555;BME280;34336;48.270;16.716;2022-12-29T00:38:24;77866.19;;;18.16;100.00
48555;BME280;34336;48.270;16.716;2022-12-29T00:41:09;77868.13;;;18.16;100.00
48555;BME280;34336;48.270;16.716;2022-12-29T00:43:59;77877.75;;;18.16;100.00
48555;BME280;34336;48.270;16.716;2022-12-29T00:46:33;77881.59;;;18.16;100.00
48555;BME280;34336;48.270;16.716;2022-12-29T00:49:00;77875.81;;;18.16;100.00
48555;BME280;34336;48.270;16.716;2022-12-29T00:51:46;77885.47;;;18.16;100.00
48555;BME280;34336;48.270;16.716;2022-12-29T00:54:13;77893.19;;;18.16;100.00
48555;BME280;34336;48.270;16.716;2022-12-29T00:56:39;77897.03;;;18.16;100.00
48555;BME280;34336;48.270;16.716;2022-12-29T00:59:07;77908.59;;;18.16;100.00
48555;BME280;34336;48.270;16.716;2022-12-29T01:01:34;77914.38;;;18.16;100.00
48555;BME280;34336;48.270;16.716;2022-12-29T01:04:02;77920.16;;;18.16;100.00
48555;BME280;34336;48.270;16.716;2022-12-29T01:06:30;77904.75;;;18.16;100.00
48555;BME280;34336;48.270;16.716;2022-12-29T01:08:56;77906.66;;;18.16;100.00
48555;BME280;34336;48.270;16.716;2022-12-29T01:11:41;77873.91;;;18.16;100.00
48555;BME280;34336;48.270;16.716;2022-12-29T01:14:08;77885.47;;;18.16;100.00
48555;BME280;34336;48.270;16.716;2022-12-29T01:16:35;77873.91;;;18.16;100.00
48555;BME280;34336;48.270;16.716;2022-12-29T01:19:03;77881.59;;;18.16;100.00
48555;BME280;34336;48.270;16.716;2022-12-29T01:21:30;77893.19;;;18.16;100.00
48555;BME280;34336;48.270;16.716;2022-12-29T01:23:56;77887.38;;;18.16;100.00
48555;BME280;34336;48.270;16.716;2022-12-29T01:26:23;77902.81;;;18.16;100.00
48555;BME280;34336;48.270;16.716;2022-12-29T01:28:51;77922.09;;;18.16;100.00
48555;BME280;34336;48.270;16.716;2022-12-29T01:31:17;77933.66;;;18.16;100.00
48555;BME280;34336;48.270;16.716;2022-12-29T01:33:44;77945.22;;;18.16;100.00
48555;BME280;34336;48.270;16.716;2022-12-29T01:36:11;77943.31;;;18.16;100.00
48555;BME280;34336;48.270;16.716;2022-12-29T01:38:40;77941.38;;;18.16;100.00
48555;BME280;34336;48.270;16.716;2022-12-29T01:41:07;77943.31;;;18.16;100.00
48555;BME280;34336;48.270;16.716;2022-12-29T01:48:45;77958.72;;;18.16;100.00
48555;BME280;34336;48.270;16.716;2022-12-29T01:51:13;77958.72;;;18.16;100.00
48555;BME280;34336;48.270;16.716;2022-12-29T01:53:40;77968.34;;;18.16;100.00
48555;BME280;34336;48.270;16.716;2022-12-29T01:56:08;77978.00;;;18.16;100.00
48555;BME280;34336;48.270;16.716;2022-12-29T01:58:39;77989.56;;;18.16;100.00
48555;BME280;34336;48.270;16.716;2022-12-29T02:01:07;77989.56;;;18.16;100.00
48555;BME280;34336;48.270;16.716;2022-12-29T02:03:34;77997.28;;;18.16;100.00
48555;BME280;34336;48.270;16.716;2022-12-29T02:06:23;78001.13;;;18.16;100.00
48555;BME280;34336;48.270;16.716;2022-12-29T02:08:49;78001.13;;;18.16;100.00
48555;BME280;34336;48.270;16.716;2022-12-29T02:11:16;77997.28;;;18.16;100.00
48555;BME280;34336;48.270;16.716;2022-12-29T02:13:43;77989.56;;;18.16;100.00
48555;BME280;34336;48.270;16.716;2022-12-29T02:31:58;77893.19;;;18.16;100.00
48555;BME280;34336;48.270;16.716;2022-12-29T02:37:06;77889.31;;;18.16;100.00
48555;BME280;34336;48.270;16.716;2022-12-29T02:39:50;77889.31;;;18.16;100.00
48555;BME280;34336;48.270;16.716;2022-12-29T02:45:00;77846.91;;;18.16;100.00
48555;BME280;34336;48.270;16.716;2022-12-29T02:47:36;77854.63;;;18.16;100.00
48555;BME280;34336;48.270;16.716;2022-12-29T02:50:07;77850.75;;;18.16;100.00
48555;BME280;34336;48.270;16.716;2022-12-29T02:53:18;77850.75;;;18.16;100.00
48555;BME280;34336;48.270;16.716;2022-12-29T02:55:25;77858.47;;;18.16;100.00
48555;BME280;34336;48.270;16.716;2022-12-29T03:00:38;77862.34;;;18.16;100.00
48555;BME280;34336;48.270;16.716;2022-12-29T03:05:51;77877.75;;;18.16;100.00
48555;BME280;34336;48.270;16.716;2022-12-29T03:11:07;77875.81;;;18.16;100.00
48555;BME280;34336;48.270;16.716;2022-12-29T03:13:56;77866.19;;;18.16;100.00
48555;BME280;34336;48.270;16.716;2022-12-29T03:16:45;77844.97;;;18.16;100.00
48555;BME280;34336;48.270;16.716;2022-12-29T03:21:41;77827.63;;;18.16;100.00
48555;BME280;34336;48.270;16.716;2022-12-29T03:24:32;77825.72;;;18.16;100.00
48555;BME280;34336;48.270;16.716;2022-12-29T03:27:01;77825.72;;;18.16;100.00
48555;BME280;34336;48.270;16.716;2022-12-29T03:29:36;77850.75;;;18.16;100.00
48555;BME280;34336;48.270;16.716;2022-12-29T03:32:07;77850.75;;;18.16;100.00
48555;BME280;34336;48.270;16.716;2022-12-29T03:34:36;77856.56;;;18.16;100.00
48555;BME280;34336;48.270;16.716;2022-12-29T03:37:14;77841.13;;;18.16;100.00
48555;BME280;34336;48.270;16.716;2022-12-29T03:39:43;77833.41;;;18.16;100.00
48555;BME280;34336;48.270;16.716;2022-12-29T03:42:12;77819.91;;;18.16;100.00
48555;BME280;34336;48.270;16.716;2022-12-29T03:44:41;77812.22;;;18.16;100.00
48555;BME280;34336;48.270;16.716;2022-12-29T03:47:12;77821.84;;;18.16;100.00
48555;BME280;34336;48.270;16.716;2022-12-29T03:49:40;77827.63;;;18.16;100.00
48555;BME280;34336;48.270;16.716;2022-12-29T03:52:07;77835.34;;;18.16;100.00
48555;BME280;34336;48.270;16.716;2022-12-29T03:54:40;77843.06;;;18.16;100.00
48555;BME280;34336;48.270;16.716;2022-12-29T03:57:07;77846.91;;;18.16;100.00
48555;BME280;34336;48.270;16.716;2022-12-29T03:59:45;77846.91;;;18.16;100.00
48555;BME280;34336;48.270;16.716;2022-12-29T04:02:11;77846.91;;;18.16;100.00
48555;BME280;34336;48.270;16.716;2022-12-29T04:04:40;77841.13;;;18.16;100.00
48555;BME280;34336;48.270;16.716;2022-12-29T04:07:06;77843.06;;;18.16;100.00
48555;BME280;34336;48.270;16.716;2022-12-29T04:09:33;77843.06;;;18.16;100.00
48555;BME280;34336;48.270;16.716;2022-12-29T04:12:00;77846.91;;;18.16;100.00
48555;BME280;34336;48.270;16.716;2022-12-29T04:14:27;77846.91;;;18.16;100.00
48555;BME280;34336;48.270;16.716;2022-12-29T04:16:54;77846.91;;;18.16;100.00
48555;BME280;34336;48.270;16.716;2022-12-29T04:19:22;77846.91;;;18.16;100.00
48555;BME280;34336;48.270;16.716;2022-12-29T04:21:49;77846.91;;;18.16;100.00
48555;BME280;34336;48.270;16.716;2022-12-29T04:24:16;77856.56;;;18.16;100.00
48555;BME280;34336;48.270;16.716;2022-12-29T04:26:44;77854.63;;;18.16;100.00
48555;BME280;34336;48.270;16.716;2022-12-29T04:29:28;77854.63;;;18.16;100.00
48555;BME280;34336;48.270;16.716;2022-12-29T04:32:04;77858.47;;;18.16;100.00
48555;BME280;34336;48.270;16.716;2022-12-29T04:34:34;77862.34;;;18.16;100.00
48555;BME280;34336;48.270;16.716;2022-12-29T04:37:00;77870.03;;;18.16;100.00
48555;BME280;34336;48.270;16.716;2022-12-29T04:39:27;77870.03;;;18.16;100.00
48555;BME280;34336;48.270;16.716;2022-12-29T04:41:54;77875.81;;;18.16;100.00
48555;BME280;34336;48.270;16.716;2022-12-29T04:44:21;77871.97;;;18.16;100.00
48555;BME280;34336;48.270;16.716;2022-12-29T04:47:04;77877.75;;;18.16;100.00
48555;BME280;34336;48.270;16.716;2022-12-29T04:50:04;77881.59;;;18.16;100.00
48555;BME280;34336;48.270;16.716;2022-12-29T04:52:43;77885.47;;;18.16;100.00
48555;BME280;34336;48.270;16.716;2022-12-29T04:55:12;77885.47;;;18.16;100.00
48555;BME280;34336;48.270;16.716;2022-12-29T04:57:39;77893.19;;;18.16;100.00
48555;BME280;34336;48.270;16.716;2022-12-29T05:00:07;77897.03;;;18.16;100.00
48555;BME280;34336;48.270;16.716;2022-12-29T05:02:36;77900.88;;;18.16;100.00
48555;BME280;34336;48.270;16.716;2022-12-29T05:05:04;77906.66;;;18.16;100.00
48555;BME280;34336;48.270;16.716;2022-12-29T05:07:34;77916.31;;;18.16;100.00
48555;BME280;34336;48.270;16.716;2022-12-29T05:10:00;77918.25;;;18.16;100.00
48555;BME280;34336;48.270;16.716;2022-12-29T05:12:31;77920.16;;;18.16;100.00
48555;BME280;34336;48.270;16.716;2022-12-29T05:14:59;77925.94;;;18.16;100.00
48555;BME280;34336;48.270;16.716;2022-12-29T05:17:26;77933.66;;;18.16;100.00
48555;BME280;34336;48.270;16.716;2022-12-29T05:19:52;77943.31;;;18.16;100.00
48555;BME280;34336;48.270;16.716;2022-12-29T05:22:19;77954.88;;;18.16;100.00
48555;BME280;34336;48.270;16.716;2022-12-29T05:24:46;77978.00;;;18.16;100.00
48555;BME280;34336;48.270;16.716;2022-12-29T05:27:12;77999.19;;;18.16;100.00
48555;BME280;34336;48.270;16.716;2022-12-29T05:29:58;77997.28;;;18.16;100.00
48555;BME280;34336;48.270;16.716;2022-12-29T05:32:24;77997.28;;;18.16;100.00
48555;BME280;34336;48.270;16.716;2022-12-29T05:34:52;78012.69;;;18.16;100.00
48555;BME280;34336;48.270;16.716;2022-12-29T05:37:19;78012.69;;;18.16;100.00
48555;BME280;34336;48.270;16.716;2022-12-29T05:39:45;78005.00;;;18.16;100.00
48555;BME280;34336;48.270;16.716;2022-12-29T05:42:13;78001.13;;;18.16;100.00
48555;BME280;34336;48.270;16.716;2022-12-29T05:45:07;77997.28;;;18.16;100.00
48555;BME280;34336;48.270;16.716;2022-12-29T05:47:52;77997.28;;;18.16;100.00
48555;BME280;34336;48.270;16.716;2022-12-29T05:50:37;77991.50;;;18.16;100.00
48555;BME280;34336;48.270;16.716;2022-12-29T05:53:13;77987.63;;;18.16;100.00
48555;BME280;34336;48.270;16.716;2022-12-29T05:55:41;77991.50;;;18.16;100.00
48555;BME280;34336;48.270;16.716;2022-12-29T05:58:15;77991.50;;;18.16;100.00
48555;BME280;34336;48.270;16.716;2022-12-29T06:00:42;77991.50;;;18.16;100.00
48555;BME280;34336;48.270;16.716;2022-12-29T06:03:11;77993.41;;;18.16;100.00
48555;BME280;34336;48.270;16.716;2022-12-29T06:05:38;77993.41;;;18.16;100.00
48555;BME280;34336;48.270;16.716;2022-12-29T06:08:05;78001.13;;;18.16;100.00
48555;BME280;34336;48.270;16.716;2022-12-29T06:10:33;77993.41;;;18.16;100.00
48555;BME280;34336;48.270;16.716;2022-12-29T06:13:03;77989.56;;;18.16;100.00
48555;BME280;34336;48.270;16.716;2022-12-29T06:15:35;77993.41;;;18.16;100.00
48555;BME280;34336;48.270;16.716;2022-12-29T06:18:04;77985.72;;;18.16;100.00
48555;BME280;34336;48.270;16.716;2022-12-29T06:20:31;77985.72;;;18.16;100.00
48555;BME280;34336;48.270;16.716;2022-12-29T06:22:57;77970.28;;;18.16;100.00
48555;BME280;34336;48.270;16.716;2022-12-29T06:25:24;77978.00;;;18.16;100.00
48555;BME280;34336;48.270;16.716;2022-12-29T06:27:51;77985.72;;;18.16;100.00
48555;BME280;34336;48.270;16.716;2022-12-29T06:30:17;77974.13;;;18.16;100.00
48555;BME280;34336;48.270;16.716;2022-12-29T06:32:44;77966.44;;;18.16;100.00
48555;BME280;34336;48.270;16.716;2022-12-29T06:35:11;77964.50;;;18.16;100.00
48555;BME280;34336;48.270;16.716;2022-12-29T06:37:43;77958.72;;;18.16;100.00
48555;BME280;34336;48.270;16.716;2022-12-29T06:40:10;77954.88;;;18.16;100.00
48555;BME280;34336;48.270;16.716;2022-12-29T06:43:07;77952.94;;;18.16;100.00
48555;BME280;34336;48.270;16.716;2022-12-29T06:45:52;77954.88;;;18.16;100.00
48555;BME280;34336;48.270;16.716;2022-12-29T06:48:18;77954.88;;;18.16;100.00
48555;BME280;34336;48.270;16.716;2022-12-29T06:50:45;77960.66;;;18.16;100.00
48555;BME280;34336;48.270;16.716;2022-12-29T06:53:11;77958.72;;;18.16;100.00
48555;BME280;34336;48.270;16.716;2022-12-29T06:55:39;77943.31;;;18.16;100.00
48555;BME280;34336;48.270;16.716;2022-12-29T06:58:05;77927.88;;;18.16;100.00
48555;BME280;34336;48.270;16.716;2022-12-29T07:00:32;77908.59;;;18.16;100.00
48555;BME280;34336;48.270;16.716;2022-12-29T07:02:59;77891.25;;;18.16;100.00
48555;BME280;34336;48.270;16.716;2022-12-29T07:05:26;77873.91;;;18.16;100.00
48555;BME280;34336;48.270;16.716;2022-12-29T07:07:54;77864.25;;;18.16;100.00
48555;BME280;34336;48.270;16.716;2022-12-29T07:10:21;77854.63;;;18.16;100.00
48555;BME280;34336;48.270;16.716;2022-12-29T07:12:48;77848.84;;;18.16;100.00
48555;BME280;34336;48.270;16.716;2022-12-29T07:15:14;77841.13;;;18.16;100.00
48555;BME280;34336;48.270;16.716;2022-12-29T07:17:41;77831.50;;;18.16;100.00
48555;BME280;34336;48.270;16.716;2022-12-29T07:20:08;77816.06;;;18.16;100.00
48555;BME280;34336;48.270;16.716;2022-12-29T07:22:35;77806.44;;;18.16;100.00
48555;BME280;34336;48.270;16.716;2022-12-29T07:25:02;77800.66;;;18.16;100.00
48555;BME280;34336;48.270;16.716;2022-12-29T07:27:29;77787.16;;;18.16;100.00
48555;BME280;34336;48.270;16.716;2022-12-29T07:29:56;77773.66;;;18.16;100.00
48555;BME280;34336;48.270;16.716;2022-12-29T07:32:22;77769.81;;;18.16;100.00
48555;BME280;34336;48.270;16.716;2022-12-29T07:34:49;77762.09;;;18.16;100.00
48555;BME280;34336;48.270;16.716;2022-12-29T07:37:15;77750.53;;;18.16;100.00
48555;BME280;34336;48.270;16.716;2022-12-29T07:39:42;77742.81;;;18.16;100.00
48555;BME280;34336;48.270;16.716;2022-12-29T07:42:09;77737.03;;;18.16;100.00
48555;BME280;34336;48.270;16.716;2022-12-29T07:44:40;77735.09;;;18.16;100.00
48555;BME280;34336;48.270;16.716;2022-12-29T07:47:32;77721.59;;;18.16;100.00
48555;BME280;34336;48.270;16.716;2022-12-29T07:49:59;77721.59;;;18.16;100.00
48555;BME280;34336;48.270;16.716;2022-12-29T07:52:25;77719.69;;;18.16;100.00
48555;BME280;34336;48.270;16.716;2022-12-29T07:54:52;77711.97;;;18.16;100.00
48555;BME280;34336;48.270;16.716;2022-12-29T07:57:18;77700.41;;;18.16;100.00
48555;BME280;34336;48.270;16.716;2022-12-29T07:59:45;77698.47;;;18.16;100.00
48555;BME280;34336;48.270;16.716;2022-12-29T08:02:11;77694.63;;;18.16;100.00
48555;BME280;34336;48.270;16.716;2022-12-29T08:04:38;77681.13;;;18.16;100.00
48555;BME280;34336;48.270;16.716;2022-12-29T08:07:05;77673.41;;;18.16;100.00
48555;BME280;34336;48.270;16.716;2022-12-29T08:09:31;77665.72;;;18.16;100.00
48555;BME280;34336;48.270;16.716;2022-12-29T08:11:58;77656.06;;;18.16;100.00
48555;BME280;34336;48.270;16.716;2022-12-29T08:14:24;77642.56;;;18.16;100.00
48555;BME280;34336;48.270;16.716;2022-12-29T08:16:51;77646.44;;;18.16;100.00
48555;BME280;34336;48.270;16.716;2022-12-29T08:19:17;77638.72;;;18.16;100.00
48555;BME280;34336;48.270;16.716;2022-12-29T08:21:44;77632.94;;;18.16;100.00
48555;BME280;34336;48.270;16.716;2022-12-29T08:24:10;77629.09;;;18.16;100.00
48555;BME280;34336;48.270;16.716;2022-12-29T08:26:38;77617.50;;;18.16;100.00
48555;BME280;34336;48.270;16.716;2022-12-29T08:29:04;77609.81;;;18.16;100.00
48555;BME280;34336;48.270;16.716;2022-12-29T08:31:31;77588.59;;;18.16;100.00
48555;BME280;34336;48.270;16.716;2022-12-29T08:33:57;77573.19;;;18.16;100.00
48555;BME280;34336;48.270;16.716;2022-12-29T08:36:24;77573.19;;;18.16;100.00
48555;BME280;34336;48.270;16.716;2022-12-29T08:38:50;77569.31;;;18.16;100.00
48555;BME280;34336;48.270;16.716;2022-12-29T08:41:17;77569.31;;;18.16;100.00
48555;BME280;34336;48.270;16.716;2022-12-29T08:43:47;77590.53;;;18.16;100.00
48555;BME280;34336;48.270;16.716;2022-12-29T08:46:14;77567.41;;;18.16;100.00
48555;BME280;34336;48.270;16.716;2022-12-29T08:48:40;77553.91;;;18.16;100.00
48555;BME280;34336;48.270;16.716;2022-12-29T08:51:07;77561.63;;;18.16;100.00
48555;BME280;34336;48.270;16.716;2022-12-29T08:53:34;77550.06;;;18.16;100.00
48555;BME280;34336;48.270;16.716;2022-12-29T08:56:01;77546.19;;;18.16;100.00
48555;BME280;34336;48.270;16.716;2022-12-29T08:58:55;77548.13;;;18.16;100.00
48555;BME280;34336;48.270;16.716;2022-12-29T09:01:23;77538.47;;;18.16;100.00
48555;BME280;34336;48.270;16.716;2022-12-29T09:03:49;77528.84;;;18.16;100.00
48555;BME280;34336;48.270;16.716;2022-12-29T09:06:36;77525.00;;;18.16;100.00
48555;BME280;34336;48.270;16.716;2022-12-29T09:09:06;77507.66;;;18.16;100.00
48555;BME280;34336;48.270;16.716;2022-12-29T09:11:32;77499.94;;;18.16;100.00
48555;BME280;34336;48.270;16.716;2022-12-29T09:13:59;77488.38;;;18.16;100.00
48555;BME280;34336;48.270;16.716;2022-12-29T09:16:26;77494.16;;;18.16;100.00
48555;BME280;34336;48.270;16.716;2022-12-29T09:18:53;77496.06;;;18.16;100.00
48555;BME280;34336;48.270;16.716;2022-12-29T09:21:19;77499.94;;;18.16;100.00
48555;BME280;34336;48.270;16.716;2022-12-29T09:23:47;77474.88;;;18.16;100.00
48555;BME280;34336;48.270;16.716;2022-12-29T09:26:14;77472.94;;;18.16;100.00
48555;BME280;34336;48.270;16.716;2022-12-29T09:28:41;77492.22;;;18.16;100.00
48555;BME280;34336;48.270;16.716;2022-12-29T09:31:07;77484.50;;;18.16;100.00
48555;BME280;34336;48.270;16.716;2022-12-29T09:33:34;77484.50;;;18.16;100.00
48555;BME280;34336;48.270;16.716;2022-12-29T09:36:00;77474.88;;;18.16;100.00
48555;BME280;34336;48.270;16.716;2022-12-29T09:38:27;77455.59;;;18.16;100.00
48555;BME280;34336;48.270;16.716;2022-12-29T09:40:56;77442.09;;;18.16;100.00
48555;BME280;34336;48.270;16.716;2022-12-29T09:43:33;77434.41;;;18.16;100.00
48555;BME280;34336;48.270;16.716;2022-12-29T09:46:19;77428.63;;;18.16;100.00
48555;BME280;34336;48.270;16.716;2022-12-29T09:48:51;77424.75;;;18.16;100.00
48555;BME280;34336;48.270;16.716;2022-12-29T09:51:22;77434.41;;;18.16;100.00
48555;BME280;34336;48.270;16.716;2022-12-29T09:53:51;77438.25;;;18.16;100.00
48555;BME280;34336;48.270;16.716;2022-12-29T09:56:21;77428.63;;;18.16;100.00
48555;BME280;34336;48.270;16.716;2022-12-29T09:59:10;77430.53;;;18.16;100.00
48555;BME280;34336;48.270;16.716;2022-12-29T10:04:18;77397.78;;;18.16;100.00
48555;BME280;34336;48.270;16.716;2022-12-29T10:06:54;77380.44;;;18.16;99.11
48555;BME280;34336;48.270;16.716;2022-12-29T10:09:56;77363.09;;;18.16;97.74
48555;BME280;34336;48.270;16.716;2022-12-29T10:20:15;77314.91;;;18.16;95.46
48555;BME280;34336;48.270;16.716;2022-12-29T10:25:23;77307.19;;;18.16;95.61
48555;BME280;34336;48.270;16.716;2022-12-29T10:27:56;77299.47;;;18.16;95.10
48555;BME280;34336;48.270;16.716;2022-12-29T10:30:24;77295.63;;;18.16;94.91
48555;BME280;34336;48.270;16.716;2022-12-29T10:32:57;77301.41;;;18.16;94.26
48555;BME280;34336;48.270;16.716;2022-12-29T10:35:26;77301.41;;;18.16;94.29
48555;BME280;34336;48.270;16.716;2022-12-29T10:38:03;77289.84;;;18.16;93.29
48555;BME280;34336;48.270;16.716;2022-12-29T10:40:46;77311.03;;;18.16;92.69
48555;BME280;34336;48.270;16.716;2022-12-29T10:43:20;77341.88;;;18.16;94.83
48555;BME280;34336;48.270;16.716;2022-12-29T10:45:48;77347.66;;;18.16;96.89
48555;BME280;34336;48.270;16.716;2022-12-29T10:48:19;77365.00;;;18.16;98.21
48555;BME280;34336;48.270;16.716;2022-12-29T10:50:50;77384.28;;;18.16;100.00
48555;BME280;34336;48.270;16.716;2022-12-29T10:53:25;77361.16;;;18.16;100.00
48555;BME280;34336;48.270;16.716;2022-12-29T10:55:53;77361.16;;;18.16;100.00
48555;BME280;34336;48.270;16.716;2022-12-29T10:58:19;77365.00;;;18.16;100.00
48555;BME280;34336;48.270;16.716;2022-12-29T11:00:51;77349.59;;;18.16;100.00
48555;BME280;34336;48.270;16.716;2022-12-29T11:08:37;77312.97;;;18.16;99.04
48555;BME280;34336;48.270;16.716;2022-12-29T11:11:07;77307.19;;;18.16;98.10
48555;BME280;34336;48.270;16.716;2022-12-29T11:13:36;77307.19;;;18.16;96.90
48555;BME280;34336;48.270;16.716;2022-12-29T11:16:12;77297.53;;;18.16;96.69
48555;BME280;34336;48.270;16.716;2022-12-29T11:18:39;77293.69;;;18.16;95.84
48555;BME280;34336;48.270;16.716;2022-12-29T11:21:07;77284.06;;;18.16;96.21
48555;BME280;34336;48.270;16.716;2022-12-29T11:23:56;77312.97;;;18.16;96.42
48555;BME280;34336;48.270;16.716;2022-12-29T11:26:24;77309.13;;;18.16;97.79
48555;BME280;34336;48.270;16.716;2022-12-29T11:31:48;77268.63;;;18.16;97.95
48555;BME280;34336;48.270;16.716;2022-12-29T11:34:23;77262.84;;;18.16;97.87
48555;BME280;34336;48.270;16.716;2022-12-29T11:36:53;77247.44;;;18.16;98.09
48555;BME280;34336;48.270;16.716;2022-12-29T11:39:25;77235.88;;;18.16;98.16
48555;BME280;34336;48.270;16.716;2022-12-29T11:41:52;77210.81;;;18.16;98.81
48555;BME280;34336;48.270;16.716;2022-12-29T11:44:19;77191.53;;;18.16;97.14
48555;BME280;34336;48.270;16.716;2022-12-29T11:46:48;77199.25;;;18.16;96.04
48555;BME280;34336;48.270;16.716;2022-12-29T11:49:20;77203.09;;;18.16;96.62
48555;BME280;34336;48.270;16.716;2022-12-29T11:51:49;77222.38;;;18.16;96.49
48555;BME280;34336;48.270;16.716;2022-12-29T11:56:56;77237.78;;;18.16;100.00
48555;BME280;34336;48.270;16.716;2022-12-29T11:59:24;77233.94;;;18.16;100.00
48555;BME280;34336;48.270;16.716;2022-12-29T12:01:51;77222.38;;;18.16;99.22
48555;BME280;34336;48.270;16.716;2022-12-29T12:04:18;77210.81;;;18.16;98.83
48555;BME280;34336;48.270;16.716;2022-12-29T12:06:48;77214.66;;;18.16;97.04
48555;BME280;34336;48.270;16.716;2022-12-29T12:09:25;77208.88;;;18.16;97.63
48555;BME280;34336;48.270;16.716;2022-12-29T12:11:53;77208.88;;;18.16;95.71
48555;BME280;34336;48.270;16.716;2022-12-29T12:14:55;77214.66;;;18.16;96.18
48555;BME280;34336;48.270;16.716;2022-12-29T12:17:32;77226.22;;;18.16;97.02
48555;BME280;34336;48.270;16.716;2022-12-29T12:25:23;77232.00;;;18.16;98.48
48555;BME280;34336;48.270;16.716;2022-12-29T12:27:51;77222.38;;;18.16;99.64
48555;BME280;34336;48.270;16.716;2022-12-29T12:30:20;77226.22;;;18.16;98.66
48555;BME280;34336;48.270;16.716;2022-12-29T12:32:58;77222.38;;;18.16;100.00
48555;BME280;34336;48.270;16.716;2022-12-29T12:35:44;77218.53;;;18.16;99.76
48555;BME280;34336;48.270;16.716;2022-12-29T12:41:02;77222.38;;;18.16;99.79
48555;BME280;34336;48.270;16.716;2022-12-29T12:43:39;77226.22;;;18.16;97.92
48555;BME280;34336;48.270;16.716;2022-12-29T13:12:38;77199.25;;;18.16;100.00
48555;BME280;34336;48.270;16.716;2022-12-29T13:22:47;77203.09;;;18.16;100.00
48555;BME280;34336;48.270;16.716;2022-12-29T13:25:25;77181.91;;;18.16;100.00
48555;BME280;34336;48.270;16.716;2022-12-29T13:33:18;77179.97;;;18.16;100.00
48555;BME280;34336;48.270;16.716;2022-12-29T13:35:59;77183.84;;;18.16;100.00
48555;BME280;34336;48.270;16.716;2022-12-29T13:41:01;77164.56;;;18.16;100.00
48555;BME280;34336;48.270;16.716;2022-12-29T13:43:31;77156.84;;;18.16;98.66
48555;BME280;34336;48.270;16.716;2022-12-29T13:46:00;77168.41;;;18.16;97.59
48555;BME280;34336;48.270;16.716;2022-12-29T13:48:33;77160.69;;;18.16;98.16
48555;BME280;34336;48.270;16.716;2022-12-29T13:51:00;77176.13;;;18.16;98.37
48555;BME280;34336;48.270;16.716;2022-12-29T13:56:16;77218.53;;;18.16;99.06
48555;BME280;34336;48.270;16.716;2022-12-29T14:01:25;77253.22;;;18.16;99.93
48555;BME280;34336;48.270;16.716;2022-12-29T14:03:56;77264.78;;;18.16;100.00
48555;BME280;34336;48.270;16.716;2022-12-29T14:08:51;77270.56;;;18.16;100.00
48555;BME280;34336;48.270;16.716;2022-12-29T14:11:22;77284.06;;;18.16;100.00
48555;BME280;34336;48.270;16.716;2022-12-29T14:13:51;77278.28;;;18.16;100.00
48555;BME280;34336;48.270;16.716;2022-12-29T14:16:28;77284.06;;;18.16;100.00
48555;BME280;34336;48.270;16.716;2022-12-29T14:18:56;77291.75;;;18.16;100.00
48555;BME280;34336;48.270;16.716;2022-12-29T14:21:29;77291.75;;;18.16;100.00
48555;BME280;34336;48.270;16.716;2022-12-29T14:26:41;77299.47;;;18.16;100.00
48555;BME280;34336;48.270;16.716;2022-12-29T14:29:42;77311.03;;;18.16;100.00
48555;BME280;34336;48.270;16.716;2022-12-29T14:32:01;77320.69;;;18.16;100.00
48555;BME280;34336;48.270;16.716;2022-12-29T14:34:28;77332.25;;;18.16;100.00
48555;BME280;34336;48.270;16.716;2022-12-29T14:36:59;77338.03;;;18.16;100.00
48555;BME280;34336;48.270;16.716;2022-12-29T14:50:05;77359.22;;;18.16;100.00
48555;BME280;34336;48.270;16.716;2022-12-29T14:52:33;77365.00;;;18.16;100.00
48555;BME280;34336;48.270;16.716;2022-12-29T14:57:42;77347.66;;;18.16;100.00
48555;BME280;34336;48.270;16.716;2022-12-29T15:02:40;77372.72;;;18.16;100.00
48555;BME280;34336;48.270;16.716;2022-12-29T15:05:20;77386.22;;;18.16;100.00
48555;BME280;34336;48.270;16.716;2022-12-29T15:07:49;77392.00;;;18.16;100.00
48555;BME280;34336;48.270;16.716;2022-12-29T15:10:16;77401.63;;;18.16;100.00
48555;BME280;34336;48.270;16.716;2022-12-29T15:12:46;77395.84;;;18.16;100.00
48555;BME280;34336;48.270;16.716;2022-12-29T15:15:25;77399.69;;;18.16;100.00
48555;BME280;34336;48.270;16.716;2022-12-29T15:17:53;77407.41;;;18.16;100.00